Date,TemperatureHighF,TemperatureAvgF,TemperatureLowF,DewpointHighF,DewpointAvgF,DewpointLowF,HumidityHigh,HumidityAvg,HumidityLow,PressureMaxIn,PressureMinIn,WindSpeedMaxMPH,WindSpeedAvgMPH,GustSpeedMaxMPH,PrecipitationSumIn
2013-3-1,50.0,37.1,23.0,23.0,15.2,6.0,62,42,28,0.00,40.00,8,5,23,0.00
2013-3-2,55.0,42.2,31.0,25.0,21.8,19.0,62,46,27,0.00,40.00,9,3,13,0.00
2013-3-3,59.0,49.2,39.0,25.0,20.9,16.0,53,34,22,0.00,40.00,11,6,29,0.00
2013-3-4,42.0,28.9,16.0,26.0,15.5,-3.0,91,60,29,0.00,40.00,11,6,26,0.09
2013-3-5,34.0,23.1,10.0,17.0,9.9,4.0,77,59,37,0.00,40.00,11,4,17,0.01
2013-3-6,53.0,37.4,21.0,24.0,17.6,12.0,73,48,22,0.00,40.00,13,4,20,0.00
2013-3-7,59.0,45.2,36.0,25.0,21.1,18.0,55,40,21,0.00,40.00,10,4,17,0.00
2013-3-8,49.0,36.9,31.0,30.0,26.6,22.0,86,67,48,0.00,40.00,7,3,12,0.00
2013-3-9,36.0,31.6,26.0,31.0,22.4,9.0,92,70,44,0.00,40.00,10,6,25,0.24
2013-3-10,49.0,37.5,26.0,18.0,11.7,4.0,55,36,21,0.00,40.00,10,7,25,0.04
2013-3-11,51.0,40.5,27.0,28.0,17.0,10.0,97,44,26,0.00,40.00,14,7,37,0.03
2013-3-12,34.0,26.6,21.0,25.0,22.1,18.0,95,83,69,0.00,40.00,9,5,14,0.13
2013-3-13,59.0,44.1,27.0,29.0,23.4,20.0,87,48,22,0.00,40.00,10,5,19,0.07
2013-3-14,66.0,54.2,41.0,26.0,19.8,10.0,42,27,11,0.00,40.00,10,5,22,0.00
2013-3-15,72.0,61.2,52.0,27.0,17.6,14.0,38,19,13,0.00,40.00,10,6,26,0.00
2013-3-16,51.0,43.1,36.0,31.0,27.5,20.0,70,55,37,0.00,40.00,9,5,18,0.00
2013-3-17,54.0,39.6,31.0,30.0,18.7,-6.0,80,45,23,0.00,40.00,11,5,24,0.00
2013-3-18,47.0,35.8,26.0,15.0,2.4,-8.0,39,25,17,0.00,40.00,10,7,33,0.00
2013-3-19,50.0,38.6,23.0,15.0,-3.4,-15.0,71,21,7,0.00,40.00,11,7,30,0.00
2013-3-20,49.0,31.3,17.0,19.0,15.4,12.0,86,56,22,0.00,40.00,6,3,12,0.00
2013-3-21,51.0,40.2,32.0,32.0,15.9,-1.0,56,39,15,0.00,40.00,10,5,30,0.00
2013-3-22,35.0,27.3,21.0,26.0,14.2,5.0,90,61,33,0.00,40.00,13,4,20,0.00
2013-3-23,23.0,17.3,7.0,18.0,11.8,2.0,89,79,65,0.00,40.00,8,3,15,0.06
2013-3-24,28.0,15.4,6.0,9.0,4.9,1.0,82,65,43,0.00,40.00,7,3,16,0.24
2013-3-25,31.0,19.2,6.0,13.0,9.7,2.0,89,68,42,0.00,40.00,9,3,13,0.20
2013-3-26,49.0,31.9,15.0,23.0,15.2,7.0,75,52,29,0.00,40.00,5,3,11,0.05
2013-3-27,49.0,38.6,31.0,30.0,27.1,21.0,87,65,44,0.00,40.00,11,4,18,0.00
2013-3-28,58.0,50.7,40.0,31.0,26.0,23.0,68,41,27,0.00,40.00,9,5,14,0.00
2013-3-29,63.0,49.8,38.0,30.0,27.0,24.0,67,44,22,0.00,40.00,10,4,23,0.00
2013-3-30,63.0,44.7,37.0,36.0,28.0,20.0,96,57,22,0.00,40.00,9,4,25,0.05
2013-3-31,68.0,46.6,31.0,32.0,23.4,3.0,92,50,8,0.00,40.00,8,4,16,0.05